createdAt,value
2018-01-23T00:00:13.848Z,14.50
2018-01-23T00:02:42.165Z,12.20
2018-01-23T00:05:10.520Z,12.67
2018-01-23T00:07:38.844Z,13.40
2018-01-23T00:10:07.142Z,10.40
2018-01-23T00:12:36.268Z,10.20
2018-01-23T00:15:04.946Z,15.50
2018-01-23T00:17:33.315Z,14.00
2018-01-23T00:20:01.627Z,15.13
2018-01-23T00:22:30.097Z,11.60
2018-01-23T00:24:58.384Z,10.80
2018-01-23T00:27:26.684Z,12.97
2018-01-23T00:29:55.547Z,13.60
2018-01-23T00:32:23.859Z,15.03
2018-01-23T00:34:52.216Z,9.73
2018-01-23T00:37:20.528Z,8.57
2018-01-23T00:39:48.838Z,14.60
2018-01-23T00:42:17.149Z,8.37
2018-01-23T00:44:45.471Z,22.53
2018-01-23T00:47:14.548Z,10.20
2018-01-23T00:49:42.838Z,12.93
2018-01-23T00:52:11.140Z,11.70
2018-01-23T00:54:39.446Z,12.03
2018-01-23T00:57:07.738Z,17.97
2018-01-23T00:59:36.809Z,16.33
2018-01-23T01:02:05.339Z,13.77
2018-01-23T01:04:34.423Z,12.60
2018-01-23T01:07:03.814Z,10.13
2018-01-23T01:09:32.882Z,13.10
2018-01-23T01:12:01.198Z,10.73
2018-01-23T01:14:29.506Z,13.60
2018-01-23T01:16:58.822Z,9.83
2018-01-23T01:19:27.307Z,10.10
2018-01-23T01:21:55.626Z,16.30
2018-01-23T01:24:23.918Z,12.80
2018-01-23T01:26:52.221Z,10.07
2018-01-23T01:29:21.278Z,19.20
2018-01-23T01:31:49.633Z,7.80
2018-01-23T01:34:18.799Z,11.63
2018-01-23T01:36:47.122Z,7.17
2018-01-23T01:39:15.477Z,11.43
2018-01-23T01:41:43.888Z,13.03
2018-01-23T01:44:12.245Z,10.33
2018-01-23T01:46:41.365Z,17.57
2018-01-23T01:49:09.659Z,11.70
2018-01-23T01:51:38.026Z,9.17
2018-01-23T01:54:06.349Z,14.03
2018-01-23T01:56:35.447Z,15.17
2018-01-23T01:59:03.755Z,10.80
2018-01-23T02:01:33.064Z,18.33
2018-01-23T02:04:02.503Z,15.00
2018-01-23T02:06:30.806Z,17.30
2018-01-23T02:08:59.177Z,13.10
2018-01-23T02:11:28.204Z,14.57
2018-01-23T02:13:56.567Z,14.43
2018-01-23T02:16:24.962Z,11.70
2018-01-23T02:18:53.248Z,14.37
2018-01-23T02:21:21.598Z,10.60
2018-01-23T02:23:49.887Z,15.10
2018-01-23T02:26:18.189Z,16.70
2018-01-23T02:28:46.502Z,11.60
2018-01-23T02:31:15.715Z,12.03
2018-01-23T02:33:44.774Z,11.37
2018-01-23T02:36:13.130Z,12.37
2018-01-23T02:38:41.459Z,18.40
2018-01-23T02:41:09.760Z,16.93
2018-01-23T02:43:38.832Z,9.97
2018-01-23T02:46:07.149Z,7.70
2018-01-23T02:48:36.370Z,9.93
2018-01-23T02:51:04.680Z,18.83
2018-01-23T02:53:33.146Z,14.27
2018-01-23T02:56:01.878Z,9.50
2018-01-23T02:58:30.175Z,10.60
2018-01-23T03:00:59.360Z,12.20
2018-01-23T03:03:27.624Z,10.07
2018-01-23T03:05:56.487Z,17.10
2018-01-23T03:08:24.786Z,9.27
2018-01-23T03:10:53.133Z,11.80
2018-01-23T03:13:21.390Z,17.47
2018-01-23T03:15:49.690Z,16.60
2018-01-23T03:18:19.304Z,12.67
2018-01-23T03:20:50.550Z,12.87
2018-01-23T03:23:20.598Z,11.20
2018-01-23T03:25:48.919Z,11.00
2018-01-23T03:28:17.292Z,12.63
2018-01-23T03:30:45.582Z,13.10
2018-01-23T03:33:13.944Z,15.50
2018-01-23T03:35:42.225Z,9.10
2018-01-23T03:38:10.551Z,12.70
2018-01-23T03:40:38.863Z,10.93
2018-01-23T03:43:07.170Z,9.90
2018-01-23T03:45:35.477Z,12.33
2018-01-23T03:48:03.813Z,9.40
2018-01-23T03:50:32.092Z,17.10
2018-01-23T03:53:00.476Z,11.73
2018-01-23T03:55:28.816Z,8.53
2018-01-23T03:57:57.120Z,12.33
2018-01-23T04:00:25.446Z,14.10
2018-01-23T04:02:54.520Z,10.23
2018-01-23T04:05:22.831Z,14.07
2018-01-23T04:07:51.182Z,13.23
2018-01-23T04:10:19.477Z,13.27
2018-01-23T04:12:47.896Z,8.00
2018-01-23T04:15:16.191Z,15.13
2018-01-23T04:17:44.492Z,11.03
2018-01-23T04:20:14.785Z,16.60
2018-01-23T04:22:43.078Z,8.77
2018-01-23T04:25:11.361Z,9.03
2018-01-23T04:27:41.256Z,6.30
2018-01-23T04:30:09.576Z,13.00
2018-01-23T04:32:38.662Z,16.77
2018-01-23T04:35:07.100Z,15.53
2018-01-23T04:37:35.417Z,9.27
2018-01-23T04:40:03.724Z,13.33
2018-01-23T04:42:33.447Z,17.53
2018-01-23T04:45:01.742Z,16.80
2018-01-23T04:47:30.098Z,11.17
2018-01-23T04:49:59.225Z,9.13
2018-01-23T04:52:28.676Z,11.00
2018-01-23T04:54:57.215Z,14.60
2018-01-23T04:57:26.020Z,9.50
2018-01-23T04:59:54.306Z,17.70
2018-01-23T05:02:22.611Z,9.43
2018-01-23T05:04:51.772Z,12.13
2018-01-23T05:07:20.160Z,20.80
2018-01-23T05:09:48.452Z,13.47
2018-01-23T05:12:16.745Z,13.13
2018-01-23T05:14:45.040Z,13.30
2018-01-23T05:17:13.337Z,12.17
2018-01-23T05:19:41.630Z,20.97
2018-01-23T05:22:10.766Z,12.87
2018-01-23T05:24:39.145Z,20.83
2018-01-23T05:27:07.460Z,13.83
2018-01-23T05:29:35.743Z,12.60
2018-01-23T05:32:04.072Z,13.33
2018-01-23T05:34:34.122Z,13.00
2018-01-23T05:37:03.409Z,16.30
2018-01-23T05:39:31.826Z,11.10
2018-01-23T05:42:01.043Z,12.07
2018-01-23T05:44:29.379Z,11.50
2018-01-23T05:46:57.767Z,10.17
2018-01-23T05:49:26.086Z,15.27
2018-01-23T05:51:55.162Z,13.47
2018-01-23T05:54:23.463Z,15.60
2018-01-23T05:56:51.948Z,12.90
2018-01-23T05:59:20.253Z,13.63
2018-01-23T06:01:48.625Z,14.00
2018-01-23T06:04:18.089Z,10.53
2018-01-23T06:06:46.464Z,8.60
2018-01-23T06:09:14.767Z,8.60
2018-01-23T06:11:43.890Z,11.73
2018-01-23T06:14:12.204Z,13.97
2018-01-23T06:16:41.371Z,14.87
2018-01-23T06:19:09.748Z,18.97
2018-01-23T06:21:38.647Z,12.57
2018-01-23T06:24:06.996Z,11.90
2018-01-23T06:26:35.381Z,12.70
2018-01-23T06:29:03.690Z,14.17
2018-01-23T06:31:32.021Z,12.13
2018-01-23T06:34:02.047Z,11.37
2018-01-23T06:36:31.194Z,12.73
2018-01-23T06:38:59.547Z,17.10
2018-01-23T06:41:27.925Z,12.27
2018-01-23T06:43:57.858Z,12.00
2018-01-23T06:46:26.163Z,11.33
2018-01-23T06:48:54.460Z,16.47
2018-01-23T06:51:24.092Z,11.50
2018-01-23T06:53:53.326Z,14.23
2018-01-23T06:56:21.644Z,11.60
2018-01-23T06:58:49.951Z,10.30
2018-01-23T07:01:18.259Z,10.20
2018-01-23T07:03:46.581Z,18.03
2018-01-23T07:06:14.869Z,9.83
2018-01-23T07:08:43.171Z,13.50
2018-01-23T07:11:12.217Z,13.40
2018-01-23T07:13:40.517Z,14.73
2018-01-23T07:16:08.826Z,12.43
2018-01-23T07:18:37.119Z,14.70
2018-01-23T07:21:05.405Z,11.60
2018-01-23T07:23:34.481Z,15.57
2018-01-23T07:26:02.793Z,13.13
2018-01-23T07:28:31.864Z,15.47
2018-01-23T07:31:00.179Z,11.70
2018-01-23T07:33:29.267Z,11.57
2018-01-23T07:35:58.341Z,12.73
2018-01-23T07:38:26.645Z,15.33
2018-01-23T07:40:54.957Z,13.33
2018-01-23T07:43:23.255Z,17.13
2018-01-23T07:45:51.555Z,9.77
2018-01-23T07:48:19.883Z,16.90
2018-01-23T07:50:48.781Z,16.23
2018-01-23T07:53:17.862Z,12.60
2018-01-23T07:55:46.997Z,12.47
2018-01-23T07:58:15.365Z,9.80
2018-01-23T08:00:44.411Z,17.80
2018-01-23T08:03:12.723Z,11.07
2018-01-23T08:05:41.005Z,12.70
2018-01-23T08:08:09.406Z,13.33
2018-01-23T08:10:38.592Z,16.97
2018-01-23T08:13:07.135Z,12.27
2018-01-23T08:15:35.425Z,16.87
2018-01-23T08:18:03.711Z,10.93
2018-01-23T08:20:32.017Z,12.00
2018-01-23T08:23:00.313Z,11.50
2018-01-23T08:25:29.371Z,16.03
2018-01-23T08:27:57.703Z,17.93
2018-01-23T08:30:26.772Z,12.07
2018-01-23T08:32:55.101Z,12.60
2018-01-23T08:35:23.398Z,12.23
2018-01-23T08:37:52.062Z,13.80
2018-01-23T08:40:20.556Z,14.40
2018-01-23T08:42:48.844Z,12.07
2018-01-23T08:45:17.169Z,10.70
2018-01-23T08:47:45.474Z,15.23
2018-01-23T08:50:15.043Z,16.00
2018-01-23T08:52:44.150Z,17.30
2018-01-23T08:55:12.450Z,13.27
2018-01-23T08:57:40.755Z,16.40
2018-01-23T09:00:09.853Z,15.13
2018-01-23T09:02:38.195Z,13.00
2018-01-23T09:05:06.485Z,16.17
2018-01-23T09:07:34.789Z,13.10
2018-01-23T09:10:03.857Z,11.20
2018-01-23T09:12:32.167Z,12.67
2018-01-23T09:15:01.241Z,12.97
2018-01-23T09:17:29.527Z,17.93
2018-01-23T09:19:57.849Z,16.20
2018-01-23T09:22:26.171Z,13.03
2018-01-23T09:24:54.486Z,15.53
2018-01-23T09:27:22.801Z,18.30
2018-01-23T09:29:51.143Z,12.30
2018-01-23T09:32:19.587Z,13.70
2018-01-23T09:34:47.982Z,14.57
2018-01-23T09:37:16.287Z,15.67
2018-01-23T09:39:44.602Z,20.20
2018-01-23T09:42:12.921Z,13.70
2018-01-23T09:44:41.214Z,16.67
2018-01-23T09:47:09.520Z,13.50
2018-01-23T09:49:37.822Z,14.27
2018-01-23T09:52:06.884Z,13.83
2018-01-23T09:54:35.184Z,14.67
2018-01-23T09:57:03.612Z,15.90
2018-01-23T09:59:31.902Z,13.17
2018-01-23T10:02:00.206Z,18.57
2018-01-23T10:04:28.494Z,15.77
2018-01-23T10:06:56.908Z,12.17
2018-01-23T10:09:26.063Z,14.47
2018-01-23T10:11:54.418Z,15.40
2018-01-23T10:14:22.744Z,11.93
2018-01-23T10:16:51.035Z,12.73
2018-01-23T10:19:19.328Z,10.63
2018-01-23T10:21:47.616Z,18.23
2018-01-23T10:24:16.674Z,10.70
2018-01-23T10:26:45.059Z,13.87
2018-01-23T10:29:13.375Z,13.90
2018-01-23T10:31:41.688Z,14.00
2018-01-23T10:34:09.984Z,13.20
2018-01-23T10:36:38.272Z,14.77
2018-01-23T10:39:06.560Z,13.80
2018-01-23T10:41:34.870Z,14.30
2018-01-23T10:44:03.163Z,15.57
2018-01-23T10:46:32.219Z,14.27
2018-01-23T10:49:00.544Z,11.90
2018-01-23T10:51:29.590Z,18.20
2018-01-23T10:53:57.923Z,17.03
2018-01-23T10:56:26.986Z,10.93
2018-01-23T10:58:55.302Z,11.50
2018-01-23T11:01:30.948Z,12.80
2018-01-23T11:03:59.270Z,13.57
2018-01-23T11:06:27.594Z,11.73
2018-01-23T11:08:55.900Z,17.43
2018-01-23T11:11:24.984Z,13.53
2018-01-23T11:13:53.287Z,12.33
2018-01-23T11:16:22.436Z,11.07
2018-01-23T11:18:50.740Z,12.77
2018-01-23T11:21:19.047Z,13.13
2018-01-23T11:23:48.127Z,16.20
2018-01-23T11:26:16.458Z,11.57
2018-01-23T11:28:44.770Z,10.00
2018-01-23T11:31:13.064Z,11.27
2018-01-23T11:33:41.388Z,12.50
2018-01-23T11:36:09.692Z,10.37
2018-01-23T11:38:37.996Z,12.57
2018-01-23T11:41:06.308Z,11.13
2018-01-23T11:43:34.611Z,13.67
2018-01-23T11:46:02.961Z,14.07
2018-01-23T11:48:31.272Z,11.23
2018-01-23T11:51:00.335Z,13.40
2018-01-23T11:53:28.674Z,9.10
2018-01-23T11:55:56.990Z,12.73
2018-01-23T11:58:25.304Z,7.13
2018-01-23T12:00:54.389Z,10.73
2018-01-23T12:03:22.697Z,9.90
2018-01-23T12:05:51.770Z,6.07
2018-01-23T12:08:20.064Z,9.43
2018-01-23T12:10:49.130Z,16.10
2018-01-23T12:13:18.213Z,10.03
2018-01-23T12:15:46.525Z,13.40
2018-01-23T12:18:14.815Z,9.70
2018-01-23T12:20:43.126Z,8.07
2018-01-23T12:23:11.420Z,7.00
2018-01-23T12:25:39.709Z,11.20
2018-01-23T12:28:08.006Z,11.20
2018-01-23T12:30:36.682Z,9.93
2018-01-23T12:33:04.982Z,7.57
2018-01-23T12:35:33.344Z,10.20
2018-01-23T12:38:02.424Z,10.20
2018-01-23T12:40:30.730Z,12.13
2018-01-23T12:42:59.402Z,12.03
2018-01-23T12:45:27.718Z,11.07
2018-01-23T12:47:56.042Z,11.23
2018-01-23T12:50:25.110Z,10.03
2018-01-23T12:52:53.402Z,8.47
2018-01-23T12:55:21.691Z,14.67
2018-01-23T12:57:50.001Z,18.97
2018-01-23T13:00:18.387Z,10.50
2018-01-23T13:02:46.680Z,9.13
2018-01-23T13:05:14.993Z,9.23
2018-01-23T13:07:43.290Z,12.40
2018-01-23T13:10:11.603Z,9.37
2018-01-23T13:12:39.920Z,10.63
2018-01-23T13:15:08.254Z,11.83
2018-01-23T13:17:37.325Z,9.23
2018-01-23T13:20:05.618Z,9.60
2018-01-23T13:22:33.935Z,10.53
2018-01-23T13:25:02.241Z,13.70
2018-01-23T13:27:30.550Z,12.13
2018-01-23T13:29:58.865Z,7.20
2018-01-23T13:32:27.970Z,11.00
2018-01-23T13:34:57.412Z,13.37
2018-01-23T13:37:25.714Z,11.20
2018-01-23T13:39:54.058Z,15.17
2018-01-23T13:42:22.364Z,13.63
2018-01-23T13:44:50.656Z,10.50
2018-01-23T13:47:18.967Z,9.27
2018-01-23T13:49:47.289Z,13.10
2018-01-23T13:52:15.651Z,9.83
2018-01-23T13:54:44.699Z,8.30
2018-01-23T13:57:13.018Z,14.40
2018-01-23T13:59:41.391Z,15.43
2018-01-23T14:02:09.694Z,12.37
2018-01-23T14:04:38.828Z,10.03
2018-01-23T14:07:07.125Z,8.10
2018-01-23T14:09:35.410Z,10.53
2018-01-23T14:12:03.701Z,8.20
2018-01-23T14:14:31.991Z,12.30
2018-01-23T14:17:00.286Z,10.23
2018-01-23T14:19:28.579Z,15.20
2018-01-23T14:21:57.637Z,10.60
2018-01-23T14:24:25.932Z,10.90
2018-01-23T14:26:54.224Z,10.50
2018-01-23T14:29:22.539Z,11.37
2018-01-23T14:31:50.925Z,10.90
2018-01-23T14:34:19.216Z,8.97
2018-01-23T14:36:47.530Z,14.33
2018-01-23T14:39:15.837Z,18.40
2018-01-23T14:41:45.560Z,8.47
2018-01-23T14:44:14.721Z,9.57
2018-01-23T14:46:43.007Z,16.77
2018-01-23T14:49:11.345Z,12.40
2018-01-23T14:51:40.477Z,13.80
2018-01-23T14:54:09.555Z,13.30
2018-01-23T14:56:37.887Z,11.77
2018-01-23T14:59:06.200Z,11.47
2018-01-23T15:01:34.514Z,11.30
2018-01-23T15:04:02.848Z,18.00
2018-01-23T15:06:31.909Z,14.40
2018-01-23T15:09:00.314Z,9.60
2018-01-23T15:11:28.612Z,16.17
2018-01-23T15:13:57.671Z,11.10
2018-01-23T15:16:25.980Z,14.40
2018-01-23T15:18:54.294Z,11.50
2018-01-23T15:21:22.605Z,14.00
2018-01-23T15:23:50.916Z,13.57
2018-01-23T15:26:19.203Z,16.30
2018-01-23T15:28:47.499Z,15.30
2018-01-23T15:31:16.592Z,21.90
2018-01-23T15:33:44.881Z,10.33
2018-01-23T15:36:14.032Z,12.37
2018-01-23T15:38:42.353Z,13.30
2018-01-23T15:41:10.665Z,13.17
2018-01-23T15:43:39.064Z,11.60
2018-01-23T15:46:07.369Z,12.83
2018-01-23T15:48:35.663Z,20.97
2018-01-23T15:51:03.949Z,13.67
2018-01-23T15:53:32.277Z,14.40
2018-01-23T15:56:00.583Z,15.80
2018-01-23T15:58:28.881Z,12.90
2018-01-23T16:00:57.180Z,14.97
2018-01-23T16:03:25.481Z,17.57
2018-01-23T16:05:54.891Z,16.70
2018-01-23T16:08:24.008Z,15.53
2018-01-23T16:10:52.325Z,18.60
2018-01-23T16:13:20.656Z,25.33
2018-01-23T16:15:49.746Z,18.87
2018-01-23T16:18:18.972Z,22.07
2018-01-23T16:20:47.217Z,21.00
2018-01-23T16:23:15.619Z,20.70
2018-01-23T16:25:44.679Z,20.70
2018-01-23T16:28:13.099Z,33.40
2018-01-23T16:30:42.235Z,23.40
2018-01-23T16:33:10.607Z,20.47
2018-01-23T16:35:38.926Z,25.40
2018-01-23T16:38:07.233Z,25.40
2018-01-23T16:40:35.564Z,25.73
2018-01-23T16:43:03.885Z,23.00
2018-01-23T16:45:32.195Z,25.97
2018-01-23T16:48:01.293Z,28.67
2018-01-23T16:50:30.625Z,30.47
2018-01-23T16:52:58.975Z,32.07
2018-01-23T16:55:28.037Z,32.03
2018-01-23T16:57:57.061Z,26.30
2018-01-23T17:00:26.148Z,26.17
2018-01-23T17:02:54.478Z,31.33
2018-01-23T17:05:22.806Z,34.20
2018-01-23T17:07:51.136Z,31.50
2018-01-23T17:10:19.466Z,25.53
2018-01-23T17:12:47.785Z,33.60
2018-01-23T17:15:16.837Z,28.00
2018-01-23T17:17:45.861Z,26.97
2018-01-23T17:20:14.199Z,29.00
2018-01-23T17:22:42.510Z,30.87
2018-01-23T17:25:10.835Z,30.03
2018-01-23T17:27:39.168Z,32.17
2018-01-23T17:30:07.483Z,33.03
2018-01-23T17:32:36.580Z,31.30
2018-01-23T17:35:05.659Z,35.20
2018-01-23T17:37:34.315Z,32.83
2018-01-23T17:40:02.656Z,32.03
2018-01-23T17:42:31.735Z,32.13
2018-01-23T17:45:00.039Z,31.07
2018-01-23T17:47:29.239Z,38.17
2018-01-23T17:49:58.306Z,35.10
2018-01-23T17:52:26.685Z,37.93
2018-01-23T17:54:55.919Z,31.97
2018-01-23T17:57:25.019Z,33.37
2018-01-23T17:59:54.194Z,33.77
2018-01-23T18:02:22.551Z,38.67
2018-01-23T18:04:51.517Z,37.57
2018-01-23T18:07:19.824Z,38.67
2018-01-23T18:09:48.146Z,36.07
2018-01-23T18:12:16.508Z,35.20
2018-01-23T18:14:44.919Z,38.90
2018-01-23T18:17:14.033Z,38.53
2018-01-23T18:19:43.000Z,39.23
2018-01-23T18:22:12.111Z,41.23
2018-01-23T18:24:41.253Z,55.77
2018-01-23T18:27:09.643Z,38.73
2018-01-23T18:29:37.980Z,40.80
2018-01-23T18:32:06.309Z,41.90
2018-01-23T18:34:34.645Z,37.00
2018-01-23T18:37:02.996Z,40.43
2018-01-23T18:39:31.349Z,39.23
2018-01-23T18:41:59.669Z,36.03
2018-01-23T18:44:27.968Z,39.63
2018-01-23T18:46:56.542Z,44.10
2018-01-23T18:49:25.651Z,48.27
2018-01-23T18:51:53.983Z,41.60
2018-01-23T18:54:22.283Z,46.93
2018-01-23T18:56:50.607Z,39.37
2018-01-23T18:59:18.940Z,42.87
2018-01-23T19:01:47.317Z,42.90
2018-01-23T19:04:15.636Z,36.93
2018-01-23T19:06:43.967Z,40.53
2018-01-23T19:09:12.288Z,36.30
2018-01-23T19:11:40.600Z,39.03
2018-01-23T19:14:08.930Z,36.93
2018-01-23T19:16:37.237Z,37.37
2018-01-23T19:19:05.553Z,34.63
2018-01-23T19:21:35.698Z,40.37
2018-01-23T19:24:04.032Z,30.00
2018-01-23T19:26:32.340Z,33.07
2018-01-23T19:29:01.414Z,36.80
2018-01-23T19:31:29.804Z,36.27
2018-01-23T19:33:59.056Z,33.83
2018-01-23T19:36:27.390Z,37.63
2018-01-23T19:38:55.932Z,36.23
2018-01-23T19:41:24.264Z,34.83
2018-01-23T19:43:52.804Z,37.80
2018-01-23T19:46:23.098Z,35.57
2018-01-23T19:48:51.763Z,36.27
2018-01-23T19:51:20.388Z,40.27
2018-01-23T19:53:48.834Z,30.40
2018-01-23T19:56:17.389Z,31.03
2018-01-23T19:58:46.062Z,33.90
2018-01-23T20:01:14.691Z,36.33
2018-01-23T20:03:43.838Z,30.40
2018-01-23T20:06:12.167Z,32.03
2018-01-23T20:08:41.240Z,31.40
2018-01-23T20:11:09.540Z,31.47
2018-01-23T20:13:37.868Z,33.27
2018-01-23T20:16:06.961Z,31.33
2018-01-23T20:18:36.316Z,32.07
2018-01-23T20:21:04.988Z,34.90
2018-01-23T20:23:33.606Z,32.90
2018-01-23T20:26:02.738Z,31.87
2018-01-23T20:28:31.364Z,31.17
2018-01-23T20:30:59.973Z,33.40
2018-01-23T20:33:28.306Z,31.40
2018-01-23T20:35:57.412Z,31.67
2018-01-23T20:38:26.495Z,33.00
2018-01-23T20:40:54.816Z,34.80
2018-01-23T20:43:23.141Z,31.37
2018-01-23T20:45:51.446Z,31.53
2018-01-23T20:48:20.106Z,30.47
2018-01-23T20:50:48.402Z,28.67
2018-01-23T20:53:16.706Z,32.73
2018-01-23T20:55:46.542Z,32.13
2018-01-23T20:58:14.845Z,32.27
2018-01-23T21:00:43.160Z,31.93
2018-01-23T21:03:11.492Z,32.37
2018-01-23T21:05:39.844Z,28.23
2018-01-23T21:08:08.154Z,33.13
2018-01-23T21:10:36.490Z,29.20
2018-01-23T21:13:05.312Z,29.00
2018-01-23T21:15:35.321Z,28.50
2018-01-23T21:18:04.385Z,26.83
2018-01-23T21:20:32.688Z,28.90
2018-01-23T21:23:00.991Z,27.60
2018-01-23T21:25:30.074Z,25.87
2018-01-23T21:27:58.400Z,21.57
2018-01-23T21:30:26.983Z,24.57
2018-01-23T21:32:55.308Z,20.63
2018-01-23T21:35:23.618Z,23.67
2018-01-23T21:37:52.718Z,19.27
2018-01-23T21:40:21.819Z,20.47
2018-01-23T21:42:50.919Z,18.43
2018-01-23T21:45:19.280Z,19.00
2018-01-23T21:47:48.412Z,18.60
2018-01-23T21:50:17.490Z,18.47
2018-01-23T21:52:45.790Z,17.10
2018-01-23T21:55:14.968Z,17.00
2018-01-23T21:57:43.268Z,17.70
2018-01-23T22:00:12.444Z,15.40
2018-01-23T22:02:40.763Z,15.70
2018-01-23T22:05:09.156Z,13.03
2018-01-23T22:07:37.460Z,12.60
2018-01-23T22:10:05.754Z,15.80
2018-01-23T22:12:34.410Z,13.40
2018-01-23T22:15:02.722Z,15.10
2018-01-23T22:17:31.034Z,14.30
2018-01-23T22:19:59.350Z,17.10
2018-01-23T22:22:27.660Z,15.00
2018-01-23T22:24:55.980Z,14.53
2018-01-23T22:27:24.292Z,13.37
2018-01-23T22:29:52.610Z,12.63
2018-01-23T22:32:21.269Z,10.70
2018-01-23T22:34:49.570Z,11.30
2018-01-23T22:37:18.016Z,10.50
2018-01-23T22:39:47.140Z,11.10
2018-01-23T22:42:15.481Z,10.67
2018-01-23T22:44:43.864Z,16.23
2018-01-23T22:47:12.168Z,8.97
2018-01-23T22:49:41.228Z,10.07
2018-01-23T22:52:09.625Z,10.07
2018-01-23T22:54:37.966Z,12.37
2018-01-23T22:57:06.274Z,7.47
2018-01-23T22:59:34.633Z,7.53
2018-01-23T23:02:02.932Z,14.30
2018-01-23T23:04:31.260Z,10.97
2018-01-23T23:07:00.326Z,6.37
2018-01-23T23:09:28.627Z,11.30
2018-01-23T23:11:58.551Z,10.57
2018-01-23T23:14:28.441Z,11.93
2018-01-23T23:16:56.876Z,10.30
2018-01-23T23:19:25.197Z,5.70
2018-01-23T23:21:53.500Z,6.80
2018-01-23T23:24:21.805Z,8.63
2018-01-23T23:26:50.874Z,8.97
2018-01-23T23:29:19.187Z,10.97
2018-01-23T23:31:47.584Z,11.73
2018-01-23T23:34:15.898Z,10.33
2018-01-23T23:36:44.232Z,8.07
2018-01-23T23:39:13.297Z,10.70
2018-01-23T23:41:41.602Z,8.27
2018-01-23T23:44:11.505Z,7.90
2018-01-23T23:46:40.749Z,4.70
2018-01-23T23:49:09.135Z,6.80
2018-01-23T23:51:37.451Z,8.57
2018-01-23T23:54:05.787Z,5.23
2018-01-23T23:56:34.082Z,6.50
2018-01-23T23:59:02.407Z,7.67
